createdAt,value
2018-08-20T12:07:37.076Z,48.59
2018-08-20T12:10:06.642Z,46.80
2018-08-20T12:12:34.834Z,46.98
2018-08-20T12:15:03.031Z,46.19
2018-08-20T12:17:31.228Z,46.74
2018-08-20T12:19:59.454Z,47.25
2018-08-20T12:22:27.649Z,46.50
2018-08-20T12:24:55.826Z,47.15
2018-08-20T12:27:24.007Z,45.26
2018-08-20T12:29:52.203Z,47.20
2018-08-20T12:32:20.383Z,46.11
2018-08-20T12:34:48.579Z,45.72
2018-08-20T12:37:16.775Z,45.75
2018-08-20T12:39:44.982Z,44.85
2018-08-20T12:42:13.182Z,43.72
2018-08-20T12:44:41.398Z,44.94
2018-08-20T12:47:09.663Z,44.00
2018-08-20T12:49:37.918Z,45.10
2018-08-20T12:52:06.834Z,44.69
2018-08-20T12:54:35.035Z,44.82
2018-08-20T12:57:03.248Z,44.46
2018-08-20T12:59:31.455Z,44.71
2018-08-20T13:01:59.667Z,44.89
2018-08-20T13:04:27.859Z,44.99
2018-08-20T13:06:56.135Z,44.42
2018-08-20T13:09:24.334Z,43.68
2018-08-20T13:11:52.527Z,44.40
2018-08-20T13:14:20.741Z,44.11
2018-08-20T13:16:48.979Z,42.90
2018-08-20T13:19:17.234Z,42.81
2018-08-20T13:21:45.419Z,43.28
2018-08-20T13:24:13.615Z,43.87
2018-08-20T13:26:41.795Z,43.43
2018-08-20T13:29:09.990Z,42.66
2018-08-20T13:31:38.195Z,43.32
2018-08-20T13:34:06.924Z,42.43
2018-08-20T13:36:35.111Z,42.99
2018-08-20T13:39:03.539Z,42.98
2018-08-20T13:41:31.748Z,43.86
2018-08-20T13:43:59.948Z,42.85
2018-08-20T13:46:28.115Z,43.37
2018-08-20T13:48:56.330Z,42.77
2018-08-20T13:51:24.542Z,42.56
2018-08-20T13:53:52.751Z,42.72
2018-08-20T13:56:20.919Z,44.20
2018-08-20T13:58:49.310Z,44.46
2018-08-20T14:01:17.542Z,43.27
2018-08-20T14:03:45.717Z,44.09
2018-08-20T14:06:13.903Z,43.39
2018-08-20T14:08:42.102Z,44.52
2018-08-20T14:11:10.300Z,44.64
2018-08-20T14:13:38.498Z,44.09
2018-08-20T14:16:06.735Z,44.60
2018-08-20T14:18:34.927Z,44.50
2018-08-20T14:21:11.067Z,44.01
2018-08-20T14:23:40.883Z,43.89
2018-08-20T14:26:09.071Z,43.58
2018-08-20T14:28:37.270Z,45.11
2018-08-20T14:31:05.551Z,44.67
2018-08-20T14:33:33.802Z,44.37
2018-08-20T14:36:02.138Z,43.63
2018-08-20T14:38:30.545Z,44.52
2018-08-20T14:40:58.827Z,44.30
2018-08-20T14:43:27.162Z,45.16
2018-08-20T14:46:00.824Z,44.35
2018-08-20T14:48:29.111Z,44.30
2018-08-20T14:50:57.563Z,43.96
2018-08-20T14:53:26.121Z,43.60
2018-08-20T14:55:54.418Z,43.29
2018-08-20T14:58:22.794Z,43.64
2018-08-20T15:00:50.983Z,43.57
2018-08-20T15:03:19.214Z,44.36
2018-08-20T15:05:47.431Z,43.45
2018-08-20T15:08:15.641Z,43.08
2018-08-20T15:10:43.826Z,43.45
2018-08-20T15:13:12.303Z,43.86
2018-08-20T15:15:40.697Z,44.75
2018-08-20T15:18:08.711Z,44.97
2018-08-20T15:20:36.933Z,44.58
2018-08-20T15:23:05.131Z,45.25
2018-08-20T15:25:33.307Z,44.70
2018-08-20T15:28:01.590Z,45.66
2018-08-20T15:30:29.821Z,45.57
2018-08-20T15:32:58.018Z,44.29
2018-08-20T15:35:26.680Z,44.95
2018-08-20T15:37:54.954Z,45.04
2018-08-20T15:40:23.144Z,45.26
2018-08-20T15:42:51.399Z,44.33
2018-08-20T15:45:19.731Z,43.60
2018-08-20T15:47:47.977Z,46.03
2018-08-20T15:50:16.223Z,46.36
2018-08-20T15:52:44.459Z,45.35
2018-08-20T15:55:12.663Z,45.60
2018-08-20T15:57:40.865Z,46.04
2018-08-20T16:00:10.098Z,46.37
2018-08-20T16:02:38.918Z,47.26
2018-08-20T16:05:07.196Z,48.11
2018-08-20T16:07:35.391Z,47.78
2018-08-20T16:10:03.612Z,48.42
2018-08-20T16:12:31.806Z,48.66
2018-08-20T16:15:00.016Z,49.61
2018-08-20T16:17:28.217Z,49.85
2018-08-20T16:19:56.403Z,49.28
2018-08-20T16:22:24.607Z,49.74
2018-08-20T16:24:52.799Z,50.63
2018-08-20T16:27:21.010Z,49.77
2018-08-20T16:29:49.207Z,49.47
2018-08-20T16:32:18.286Z,50.87
2018-08-20T16:34:46.474Z,50.01
2018-08-20T16:37:14.695Z,50.39
2018-08-20T16:39:42.988Z,49.86
2018-08-20T16:42:11.183Z,50.26
2018-08-20T16:44:39.401Z,50.81
2018-08-20T16:47:07.612Z,50.51
2018-08-20T16:49:35.823Z,51.14
2018-08-20T16:52:04.051Z,50.58
2018-08-20T16:54:32.302Z,50.10
2018-08-20T16:57:00.588Z,50.93
2018-08-20T16:59:29.476Z,50.26
2018-08-20T17:01:57.740Z,50.60
2018-08-20T17:04:33.063Z,51.64
2018-08-20T17:07:02.337Z,51.10
2018-08-20T17:09:30.590Z,51.40
2018-08-20T17:11:58.894Z,51.82
2018-08-20T17:14:27.077Z,51.90
2018-08-20T17:16:55.475Z,51.47
2018-08-20T17:19:23.696Z,51.80
2018-08-20T17:21:51.911Z,52.08
2018-08-20T17:24:25.246Z,52.00
2018-08-20T17:26:53.511Z,52.17
2018-08-20T17:29:23.015Z,52.50
2018-08-20T17:31:51.238Z,51.70
2018-08-20T17:34:19.448Z,51.74
2018-08-20T17:36:47.646Z,52.92
2018-08-20T17:39:15.927Z,52.98
2018-08-20T17:41:44.142Z,52.97
2018-08-20T17:44:12.360Z,53.11
2018-08-20T17:46:40.788Z,53.23
2018-08-20T17:49:11.723Z,52.51
2018-08-20T17:51:39.923Z,52.90
2018-08-20T17:54:08.123Z,54.11
2018-08-20T17:56:36.351Z,53.85
2018-08-20T17:59:10.626Z,53.30
2018-08-20T18:01:38.866Z,53.21
2018-08-20T18:04:07.478Z,53.87
2018-08-20T18:06:47.168Z,53.87
2018-08-20T18:09:15.458Z,54.89
2018-08-20T18:11:49.671Z,54.35
2018-08-20T18:14:18.968Z,54.45
2018-08-20T18:16:47.169Z,54.46
2018-08-20T18:19:15.663Z,54.21
2018-08-20T18:21:43.882Z,54.00
2018-08-20T18:24:13.245Z,54.41
2018-08-20T18:26:44.611Z,55.28
2018-08-20T18:29:12.998Z,54.99
2018-08-20T18:31:41.275Z,55.18
2018-08-20T18:34:09.498Z,55.58
2018-08-20T18:36:37.761Z,56.07
2018-08-20T18:39:10.675Z,56.12
2018-08-20T18:42:13.774Z,55.30
2018-08-20T18:44:42.005Z,56.00
2018-08-20T18:47:15.437Z,55.85
2018-08-20T18:49:52.684Z,56.13
2018-08-20T18:52:22.079Z,56.28
2018-08-20T18:54:51.603Z,56.64
2018-08-20T18:57:22.104Z,57.43
2018-08-20T18:59:50.682Z,56.50
2018-08-20T19:02:39.710Z,56.14
2018-08-20T19:05:12.467Z,58.22
2018-08-20T19:07:40.866Z,58.80
2018-08-20T19:10:12.812Z,59.14
2018-08-20T19:12:48.849Z,59.04
2018-08-20T19:15:27.571Z,58.92
2018-08-20T19:17:55.815Z,59.84
2018-08-20T19:20:24.041Z,61.27
2018-08-20T19:22:52.267Z,61.03
2018-08-20T19:25:20.446Z,60.75
2018-08-20T19:27:48.682Z,62.29
2018-08-20T19:30:23.455Z,62.93
2018-08-20T19:32:51.735Z,63.05
2018-08-20T19:35:19.959Z,63.57
2018-08-20T19:37:48.580Z,64.30
2018-08-20T19:40:16.875Z,64.59
2018-08-20T19:42:45.075Z,65.27
2018-08-20T19:45:13.914Z,65.10
2018-08-20T19:47:42.118Z,65.58
2018-08-20T19:50:11.736Z,64.51
2018-08-20T19:52:40.056Z,65.57
2018-08-20T19:55:10.755Z,66.52
2018-08-20T19:57:38.983Z,63.65
2018-08-20T20:00:10.958Z,65.19
2018-08-20T20:02:41.087Z,63.99
2018-08-20T20:05:10.902Z,64.72
2018-08-20T20:07:39.166Z,65.23
2018-08-20T20:10:11.230Z,65.35
2018-08-20T20:12:43.589Z,65.31
2018-08-20T20:15:11.803Z,63.67
2018-08-20T20:17:40.043Z,65.63
2018-08-20T20:20:08.263Z,64.28
2018-08-20T20:22:37.991Z,63.71
2018-08-20T20:25:06.693Z,65.03
2018-08-20T20:27:35.139Z,65.20
2018-08-20T20:30:03.484Z,65.29
2018-08-20T20:32:31.746Z,65.86
2018-08-20T20:35:00.198Z,65.55
2018-08-20T20:37:28.516Z,66.16
2018-08-20T20:39:58.812Z,64.59
2018-08-20T20:42:27.410Z,65.02
2018-08-20T20:44:55.778Z,65.72
2018-08-20T20:47:24.043Z,65.80
2018-08-20T20:49:52.483Z,65.95
2018-08-20T20:52:20.817Z,65.49
2018-08-20T20:54:49.033Z,64.95
2018-08-20T20:57:17.310Z,66.83
2018-08-20T20:59:45.643Z,66.40
2018-08-20T21:02:13.843Z,67.35
2018-08-20T21:04:42.083Z,67.70
2018-08-20T21:07:10.354Z,68.49
2018-08-20T21:09:43.887Z,68.19
2018-08-20T21:15:12.816Z,67.30
2018-08-20T21:17:41.508Z,67.77
2018-08-20T21:20:09.838Z,67.70
2018-08-20T21:22:39.584Z,68.96
2018-08-20T21:25:09.170Z,66.89
2018-08-20T21:27:37.386Z,70.12
2018-08-20T21:30:12.960Z,69.19
2018-08-20T21:32:47.015Z,70.52
2018-08-20T21:35:15.611Z,69.57
2018-08-20T21:37:47.391Z,70.22
2018-08-20T21:40:19.775Z,71.25
2018-08-20T21:42:47.982Z,71.66
2018-08-20T21:45:16.295Z,72.68
2018-08-20T21:47:44.558Z,72.25
2018-08-20T21:50:12.791Z,73.25
2018-08-20T21:52:40.987Z,73.05
2018-08-20T21:57:58.075Z,73.79
2018-08-20T22:00:27.326Z,73.13
2018-08-20T22:02:58.554Z,72.73
2018-08-20T22:05:27.150Z,73.34
2018-08-20T22:07:58.280Z,73.49
2018-08-20T22:10:27.870Z,73.02
2018-08-20T22:12:56.187Z,72.51
2018-08-20T22:15:24.462Z,73.08
2018-08-20T22:17:52.735Z,73.66
2018-08-20T22:20:20.987Z,73.74
2018-08-20T22:22:49.235Z,75.90
2018-08-20T22:25:17.455Z,76.73
2018-08-20T22:27:50.951Z,76.37
2018-08-20T22:30:19.215Z,77.99
2018-08-20T22:32:47.485Z,78.26
2018-08-20T22:35:20.729Z,77.33
2018-08-20T22:37:51.268Z,77.49
2018-08-20T22:40:20.295Z,78.87
2018-08-20T22:42:51.132Z,78.70
2018-08-20T22:45:20.315Z,78.86
2018-08-20T22:47:49.563Z,78.88
2018-08-20T22:50:17.945Z,79.12
2018-08-20T22:52:47.878Z,78.65
2018-08-20T22:55:17.406Z,78.05
2018-08-20T22:58:17.574Z,78.47
2018-08-20T23:00:45.847Z,78.85
2018-08-20T23:03:14.052Z,78.12
2018-08-20T23:05:42.298Z,77.40
2018-08-20T23:08:15.858Z,76.30
2018-08-20T23:10:44.170Z,77.72
2018-08-20T23:13:12.429Z,78.18
2018-08-20T23:15:40.783Z,78.35
2018-08-20T23:18:09.038Z,78.48
2018-08-20T23:20:37.322Z,78.64
2018-08-20T23:23:05.549Z,79.13
2018-08-20T23:25:33.965Z,78.74
2018-08-20T23:28:11.009Z,79.57
2018-08-20T23:30:40.787Z,79.46
2018-08-20T23:33:09.701Z,78.50
2018-08-20T23:35:37.910Z,79.47
2018-08-20T23:38:06.115Z,79.76
2018-08-20T23:40:34.382Z,80.10
2018-08-20T23:43:02.655Z,80.75
2018-08-20T23:45:37.391Z,81.91
2018-08-20T23:48:05.670Z,81.61
2018-08-20T23:50:33.937Z,82.22
2018-08-20T23:53:02.150Z,81.40
2018-08-20T23:55:30.453Z,80.95
2018-08-20T23:57:58.723Z,80.92
